71.9°F
Current conditions from King Hill
Updated every 5 minutes
 
  Friday July 25, 2014

Station Historical Data
Daily Summary for December 11, 2011 Units:  Metric    English   Both
« Previous Day
Next Day »
Daily Weekly Monthly Yearly Custom
  High: Low: Average:
Temperature: 0.1 °C -8.9 °C -3.3 °C
Dew Point: -7.1 °C -11.8 °C -8.7 °C
Humidity: 89% 52% 67%
Wind Speed: 20.9km/h 0km/h 9.5km/h
Wind Gust: 37km/h - -
Wind- - SW
Pressure: 1034.1 hPa 1028.7 hPa -
Precipitation: 0 mm    
Historical Graphs
 
 
Tabular Data for December 11, 2011
Time Temperature Dew Point Pressure Wind Wind Speed Wind Gust Humidity Daily Rainfall
00:04 -5 °C -9.8 °C 1028.7 hPa Calm   6.4 km/h 69% 0 mm
00:09 -5.2 °C -9.9 °C 1028.7 hPa Calm   3.2 km/h 69% 0 mm
00:14 -5.3 °C -9.9 °C 1028.7 hPa Calm   3.2 km/h 70% 0 mm
00:19 -5.4 °C -9.9 °C 1028.7 hPa West 1.6 km/h 4.8 km/h 71% 0 mm
00:24 -5.5 °C -9.7 °C 1028.7 hPa West 1.6 km/h 8 km/h 72% 0 mm
00:29 -5.3 °C -9.7 °C 1028.7 hPa West 4.8 km/h 9.7 km/h 71% 0 mm
00:34 -5 °C -9.6 °C 1029 hPa West 6.4 km/h 12.9 km/h 70% 0 mm
00:39 -4.8 °C -9.4 °C 1029 hPa WSW 1.6 km/h 12.9 km/h 70% 0 mm
00:44 -4.8 °C -9.4 °C 1029 hPa Calm   8 km/h 70% 0 mm
00:49 -4.9 °C -9.5 °C 1028.7 hPa WSW 1.6 km/h 4.8 km/h 70% 0 mm
00:54 -4.8 °C -9.4 °C 1029 hPa WSW 3.2 km/h 11.3 km/h 70% 0 mm
00:59 -4.7 °C -9.3 °C 1029 hPa West 3.2 km/h 11.3 km/h 70% 0 mm
01:04 -4.7 °C -9.3 °C 1029 hPa SW 3.2 km/h 9.7 km/h 70% 0 mm
01:10 -4.8 °C -9.4 °C 1029 hPa Calm   8 km/h 70% 0 mm
01:15 -4.7 °C -9.6 °C 1029 hPa WSW 1.6 km/h 11.3 km/h 69% 0 mm
01:20 -4.7 °C -9.6 °C 1029.3 hPa WSW 3.2 km/h 11.3 km/h 69% 0 mm
01:25 -4.8 °C -9.6 °C 1029.3 hPa WSW 1.6 km/h 6.4 km/h 69% 0 mm
01:30 -4.8 °C -9.4 °C 1029.3 hPa Calm   6.4 km/h 70% 0 mm
01:35 -4.9 °C -9.5 °C 1029.3 hPa WSW 1.6 km/h 9.7 km/h 70% 0 mm
01:40 -4.9 °C -9.5 °C 1029.7 hPa Calm   9.7 km/h 70% 0 mm
01:45 -4.9 °C -9.6 °C 1029.7 hPa West 1.6 km/h 6.4 km/h 70% 0 mm
01:50 -4.9 °C -9.4 °C 1029.7 hPa Calm   6.4 km/h 71% 0 mm
01:55 -5 °C -9.4 °C 1029.7 hPa Calm   6.4 km/h 71% 0 mm
02:00 -5 °C -9.4 °C 1030 hPa Calm   6.4 km/h 71% 0 mm
02:05 -5.1 °C -9.4 °C 1030 hPa Calm   3.2 km/h 72% 0 mm
02:10 -5.2 °C -9.5 °C 1030 hPa Calm   3.2 km/h 72% 0 mm
02:15 -5.4 °C -9.5 °C 1030 hPa Calm   6.4 km/h 73% 0 mm
02:20 -5.3 °C -9.4 °C 1030 hPa West 4.8 km/h 9.7 km/h 73% 0 mm
02:25 -5.3 °C -9.3 °C 1030.4 hPa WSW 1.6 km/h 9.7 km/h 73% 0 mm
02:30 -5.2 °C -9.4 °C 1030.4 hPa West 3.2 km/h 8 km/h 72% 0 mm
02:35 -5.2 °C -9.4 °C 1030.4 hPa West 3.2 km/h 8 km/h 72% 0 mm
02:40 -5.2 °C -9.4 °C 1030.4 hPa Calm   8 km/h 72% 0 mm
02:45 -5.2 °C -9.5 °C 1030.4 hPa West 1.6 km/h 8 km/h 72% 0 mm
02:50 -5.3 °C -9.4 °C 1030.4 hPa West 1.6 km/h 9.7 km/h 73% 0 mm
02:55 -5.4 °C -9.5 °C 1030.4 hPa WSW 1.6 km/h 9.7 km/h 73% 0 mm
03:00 -5.4 °C -9.5 °C 1030.4 hPa West 4.8 km/h 9.7 km/h 73% 0 mm
03:05 -5.3 °C -9.6 °C 1030.4 hPa WNW 4.8 km/h 14.5 km/h 72% 0 mm
03:10 -5.4 °C -9.7 °C 1030.7 hPa West 1.6 km/h 14.5 km/h 72% 0 mm
03:15 -5.4 °C -9.7 °C 1030.4 hPa West 4.8 km/h 11.3 km/h 72% 0 mm
03:25 -5.7 °C -9.9 °C 1030.4 hPa West 1.6 km/h 9.7 km/h 72% 0 mm
03:30 -5.8 °C -9.8 °C 1030.4 hPa West 1.6 km/h 9.7 km/h 73% 0 mm
03:35 -5.8 °C -9.9 °C 1030.7 hPa West 3.2 km/h 11.3 km/h 73% 0 mm
03:40 -5.8 °C -9.7 °C 1030.7 hPa West 1.6 km/h 11.3 km/h 74% 0 mm
03:45 -5.9 °C -9.8 °C 1030.7 hPa WSW 3.2 km/h 8 km/h 74% 0 mm
03:50 -6 °C -9.9 °C 1030.7 hPa WNW 1.6 km/h 9.7 km/h 74% 0 mm
03:55 -6.2 °C -10.1 °C 1030.7 hPa WSW 1.6 km/h 9.7 km/h 74% 0 mm
04:00 -6.2 °C -9.9 °C 1030.7 hPa Calm   11.3 km/h 75% 0 mm
04:05 -6.2 °C -9.9 °C 1030.7 hPa West 1.6 km/h 11.3 km/h 75% 0 mm
04:10 -6.3 °C -10 °C 1030.7 hPa West 3.2 km/h 11.3 km/h 75% 0 mm
04:15 -6.2 °C -9.9 °C 1030.7 hPa Calm   11.3 km/h 75% 0 mm
04:20 -6.2 °C -9.9 °C 1030.7 hPa WSW 1.6 km/h 11.3 km/h 75% 0 mm
04:25 -6.2 °C -9.9 °C 1031 hPa WSW 4.8 km/h 9.7 km/h 75% 0 mm
04:35 -6.3 °C -10 °C 1031 hPa West 1.6 km/h 9.7 km/h 75% 0 mm
04:40 -6.2 °C -9.9 °C 1031 hPa Calm   9.7 km/h 75% 0 mm
04:45 -6.3 °C -10 °C 1031 hPa West 1.6 km/h 8 km/h 75% 0 mm
04:50 -6.3 °C -10.1 °C 1031 hPa West 1.6 km/h 8 km/h 75% 0 mm
04:55 -6.4 °C -10.2 °C 1031.4 hPa WSW 1.6 km/h 8 km/h 75% 0 mm
05:00 -6.4 °C -10.2 °C 1031.4 hPa SW 1.6 km/h 8 km/h 75% 0 mm
05:05 -6.6 °C -10.3 °C 1031.4 hPa Calm   8 km/h 75% 0 mm
05:10 -6.8 °C -10.4 °C 1031.4 hPa SW 1.6 km/h 6.4 km/h 75% 0 mm
05:15 -6.8 °C -10.3 °C 1031.4 hPa Calm   6.4 km/h 76% 0 mm
05:20 -6.8 °C -10.3 °C 1031.7 hPa WSW 1.6 km/h 6.4 km/h 76% 0 mm
05:25 -7 °C -10.3 °C 1031.7 hPa WSW 3.2 km/h 8 km/h 77% 0 mm
05:30 -6.8 °C -10.2 °C 1031.7 hPa Calm   8 km/h 77% 0 mm
05:35 -6.8 °C -10.2 °C 1031.7 hPa Calm   4.8 km/h 77% 0 mm
05:40 -6.9 °C -10.3 °C 1031.7 hPa Calm   4.8 km/h 77% 0 mm
05:45 -7.1 °C -10.4 °C 1031.7 hPa Calm     77% 0 mm
05:49 -7.1 °C -10.2 °C 1032.1 hPa WSW 1.6 km/h 3.2 km/h 78% 0 mm
05:55 -7 °C -10.2 °C 1032.1 hPa Calm   3.2 km/h 78% 0 mm
06:00 -7.1 °C -10.2 °C 1032.1 hPa Calm     78% 0 mm
06:05 -7.5 °C -10.8 °C 1032.1 hPa Calm     77% 0 mm
06:10 -8 °C -11.2 °C 1032.1 hPa Calm     78% 0 mm
06:14 -8.4 °C -11.4 °C 1032.1 hPa Calm     79% 0 mm
06:20 -8.3 °C -11.2 °C 1032.1 hPa Calm     80% 0 mm
06:25 -8.5 °C -11.3 °C 1032.1 hPa WSW 1.6 km/h 4.8 km/h 80% 0 mm
06:30 -8.2 °C -10.9 °C 1032.4 hPa Calm   4.8 km/h 81% 0 mm
06:35 -8 °C -10.7 °C 1032.4 hPa Calm   4.8 km/h 81% 0 mm
06:40 -7.9 °C -10.8 °C 1032.4 hPa Calm   4.8 km/h 80% 0 mm
06:45 -8.1 °C -10.9 °C 1032.4 hPa Calm   3.2 km/h 80% 0 mm
06:50 -8.5 °C -11.5 °C 1032.4 hPa Calm     79% 0 mm
06:54 -8.8 °C -11.7 °C 1032.4 hPa Calm     80% 0 mm
07:00 -8.9 °C -11.8 °C 1032.4 hPa Calm     80% 0 mm
07:05 -8.9 °C -11.6 °C 1032.4 hPa Calm     81% 0 mm
07:10 -8.8 °C -11.4 °C 1032.4 hPa Calm     81% 0 mm
07:14 -8.7 °C -11.4 °C 1032.7 hPa Calm   1.6 km/h 81% 0 mm
07:20 -8.8 °C -11.5 °C 1032.7 hPa Calm   4.8 km/h 81% 0 mm
07:25 -8.8 °C -11.5 °C 1032.7 hPa Calm   4.8 km/h 81% 0 mm
07:30 -8.7 °C -10.2 °C 1032.7 hPa WSW 1.6 km/h 4.8 km/h 89% 0 mm
07:40 -8.1 °C -10.9 °C 1033.1 hPa WSW 1.6 km/h 6.4 km/h 80% 0 mm
07:50 -7.6 °C -10.6 °C 1033.1 hPa Calm   6.4 km/h 79% 0 mm
07:55 -7.4 °C -10.4 °C 1033.1 hPa Calm   6.4 km/h 79% 0 mm
08:00 -7.3 °C -10.6 °C 1033.1 hPa WSW 1.6 km/h 6.4 km/h 77% 0 mm
08:05 -7.2 °C -10.6 °C 1033.1 hPa SSW 3.2 km/h 11.3 km/h 77% 0 mm
08:09 -7 °C -10.3 °C 1033.1 hPa SSW 4.8 km/h 11.3 km/h 77% 0 mm
08:15 -6.8 °C -10.3 °C 1033.4 hPa SSW 4.8 km/h 9.7 km/h 76% 0 mm
08:20 -6.7 °C -10.4 °C 1033.4 hPa SSW 4.8 km/h 9.7 km/h 75% 0 mm
08:25 -6.6 °C -10.3 °C 1033.4 hPa SSW 3.2 km/h 9.7 km/h 75% 0 mm
08:35 -6.5 °C -10.2 °C 1033.4 hPa SSW 4.8 km/h 9.7 km/h 75% 0 mm
08:40 -6.3 °C -10.2 °C 1033.4 hPa SSW 1.6 km/h 12.9 km/h 74% 0 mm
08:45 -6.2 °C -10.1 °C 1033.4 hPa SSW 4.8 km/h 12.9 km/h 74% 0 mm
08:50 -6 °C -9.9 °C 1033.7 hPa SSW 8 km/h 14.5 km/h 74% 0 mm
08:54 -5.8 °C -9.9 °C 1033.7 hPa SSW 6.4 km/h 14.5 km/h 73% 0 mm
08:59 -5.7 °C -9.7 °C 1033.7 hPa SSW 3.2 km/h 14.5 km/h 73% 0 mm
09:05 -5.5 °C -9.6 °C 1033.7 hPa SSW 6.4 km/h 14.5 km/h 73% 0 mm
09:10 -5.3 °C -9.3 °C 1033.7 hPa SSW 8 km/h 16.1 km/h 73% 0 mm
09:15 -4.8 °C -9.1 °C 1033.7 hPa SSW 9.7 km/h 16.1 km/h 72% 0 mm
09:20 -4.5 °C -8.9 °C 1034.1 hPa SSW 8 km/h 16.1 km/h 71% 0 mm
09:25 -4.2 °C -8.9 °C 1034.1 hPa SSW 4.8 km/h 14.5 km/h 70% 0 mm
09:30 -4 °C -8.8 °C 1034.1 hPa SW 4.8 km/h 12.9 km/h 69% 0 mm
09:34 -3.8 °C -8.7 °C 1034.1 hPa SSW 9.7 km/h 12.9 km/h 69% 0 mm
09:40 -3.7 °C -8.8 °C 1034.1 hPa South 6.4 km/h 16.1 km/h 68% 0 mm
09:45 -3.7 °C -8.8 °C 1034.1 hPa SW 8 km/h 17.7 km/h 68% 0 mm
09:49 -3.4 °C -8.6 °C 1034.1 hPa SSW 9.7 km/h 17.7 km/h 67% 0 mm
09:55 -3.3 °C -8.6 °C 1034.1 hPa SSW 8 km/h 19.3 km/h 67% 0 mm
09:59 -3.3 °C -8.7 °C 1034.1 hPa SW 8 km/h 19.3 km/h 66% 0 mm
10:04 -3.2 °C -8.6 °C 1033.7 hPa SSW 8 km/h 17.7 km/h 66% 0 mm
10:10 -2.9 °C -8.6 °C 1033.7 hPa SSW 6.4 km/h 17.7 km/h 65% 0 mm
10:15 -2.7 °C -8.6 °C 1033.7 hPa SSW 8 km/h 16.1 km/h 64% 0 mm
10:20 -2.6 °C -8.7 °C 1033.7 hPa SSW 8 km/h 16.1 km/h 63% 0 mm
10:25 -2.6 °C -8.7 °C 1033.7 hPa SSW 8 km/h 16.1 km/h 63% 0 mm
10:30 -2.7 °C -8.7 °C 1033.7 hPa SSW 6.4 km/h 14.5 km/h 63% 0 mm
10:35 -2.4 °C -8.3 °C 1033.7 hPa SSW 6.4 km/h 14.5 km/h 64% 0 mm
10:40 -2.3 °C -8.4 °C 1033.7 hPa SSW 6.4 km/h 12.9 km/h 63% 0 mm
10:44 -2.1 °C -8.2 °C 1033.7 hPa SSW 4.8 km/h 14.5 km/h 63% 0 mm
10:49 -1.8 °C -8.3 °C 1033.4 hPa South 6.4 km/h 14.5 km/h 61% 0 mm
10:55 -1.7 °C -8.4 °C 1033.4 hPa South 9.7 km/h 19.3 km/h 60% 0 mm
10:59 -1.8 °C -8.3 °C 1033.4 hPa SSW 6.4 km/h 19.3 km/h 61% 0 mm
11:05 -1.7 °C -8.2 °C 1033.4 hPa SSW 4.8 km/h 12.9 km/h 61% 0 mm
11:10 -1.4 °C -8.4 °C 1033.4 hPa SW 6.4 km/h 12.9 km/h 59% 0 mm
11:15 -1.2 °C -8.2 °C 1033.1 hPa SW 4.8 km/h 11.3 km/h 59% 0 mm
11:19 -1.1 °C -8.3 °C 1033.1 hPa SSW 6.4 km/h 11.3 km/h 58% 0 mm
11:25 -1.1 °C -8.3 °C 1033.1 hPa South 6.4 km/h 11.3 km/h 58% 0 mm
11:30 -0.9 °C -8.3 °C 1033.1 hPa SSW 4.8 km/h 14.5 km/h 57% 0 mm
11:35 -0.7 °C -8.4 °C 1032.7 hPa SSW 9.7 km/h 16.1 km/h 56% 0 mm
11:40 -0.7 °C -8.4 °C 1032.7 hPa South 8 km/h 17.7 km/h 56% 0 mm
11:49 -0.6 °C -8.5 °C 1032.7 hPa SSW 9.7 km/h 16.1 km/h 55% 0 mm
11:55 -0.4 °C -8.2 °C 1032.4 hPa SSW 4.8 km/h 16.1 km/h 56% 0 mm
12:00 -0.4 °C -8.4 °C 1032.7 hPa South 6.4 km/h 16.1 km/h 55% 0 mm
12:04 -0.3 °C -8.4 °C 1032.7 hPa WSW 6.4 km/h 16.1 km/h 54% 0 mm
12:09 -0.3 °C -8.7 °C 1032.4 hPa WSW 8 km/h 14.5 km/h 53% 0 mm
12:15 -0.4 °C -8.8 °C 1032.4 hPa South 6.4 km/h 14.5 km/h 53% 0 mm
12:20 -0.4 °C -8.8 °C 1032.4 hPa SSW 9.7 km/h 17.7 km/h 53% 0 mm
12:25 -0.3 °C -8.2 °C 1032.4 hPa South 3.2 km/h 17.7 km/h 55% 0 mm
12:30 -0.1 °C -8.6 °C 1032.4 hPa SW 9.7 km/h 20.9 km/h 53% 0 mm
12:40 0 °C -8.7 °C 1032.4 hPa SW 11.3 km/h 17.7 km/h 52% 0 mm
12:45 0.1 °C -8.3 °C 1032.4 hPa SSW 11.3 km/h 19.3 km/h 53% 0 mm
12:49 -0.2 °C -8.3 °C 1032.4 hPa South 8 km/h 19.3 km/h 54% 0 mm
12:55 -0.4 °C -8.6 °C 1032.4 hPa SSW 11.3 km/h 19.3 km/h 54% 0 mm
12:59 -0.7 °C -8.7 °C 1032.4 hPa SSW 11.3 km/h 20.9 km/h 55% 0 mm
13:05 -0.8 °C -8.4 °C 1032.4 hPa SW 9.7 km/h 20.9 km/h 56% 0 mm
13:10 -0.8 °C -8.5 °C 1032.4 hPa SSW 9.7 km/h 19.3 km/h 56% 0 mm
13:14 -0.7 °C -8.4 °C 1032.4 hPa SSW 11.3 km/h 19.3 km/h 56% 0 mm
13:19 -0.6 °C -8.3 °C 1032.4 hPa SSW 12.9 km/h 20.9 km/h 56% 0 mm
13:25 -0.9 °C -8.4 °C 1032.4 hPa SSW 11.3 km/h 20.9 km/h 57% 0 mm
13:30 -1.1 °C -8.3 °C 1032.1 hPa SSW 11.3 km/h 20.9 km/h 58% 0 mm
13:35 -0.9 °C -8.4 °C 1032.1 hPa SSW 8 km/h 19.3 km/h 57% 0 mm
13:40 -1.2 °C -8.2 °C 1032.1 hPa SSW 11.3 km/h 20.9 km/h 59% 0 mm
13:45 -1.3 °C -8.1 °C 1032.1 hPa SW 11.3 km/h 20.9 km/h 60% 0 mm
13:54 -1.1 °C -7.7 °C 1032.1 hPa SW 9.7 km/h 19.3 km/h 61% 0 mm
14:00 -1 °C -7.8 °C 1031.7 hPa South 11.3 km/h 19.3 km/h 60% 0 mm
14:04 -0.7 °C -7.7 °C 1031.7 hPa SSW 9.7 km/h 17.7 km/h 59% 0 mm
14:09 -0.6 °C -8.1 °C 1031.7 hPa SSW 11.3 km/h 25.7 km/h 57% 0 mm
14:15 -0.5 °C -7.8 °C 1031.4 hPa SSW 12.9 km/h 25.7 km/h 58% 0 mm
14:19 -0.5 °C -7.8 °C 1031.4 hPa SSW 11.3 km/h 25.7 km/h 58% 0 mm
14:25 -0.3 °C -7.4 °C 1031.4 hPa SSW 8 km/h 25.7 km/h 59% 0 mm
14:34 -0.6 °C -7.4 °C 1031.4 hPa SSW 12.9 km/h 25.7 km/h 60% 0 mm
14:40 -0.7 °C -7.4 °C 1031.4 hPa SSW 16.1 km/h 29 km/h 60% 0 mm
14:45 -0.7 °C -7.3 °C 1031.4 hPa SW 11.3 km/h 29 km/h 61% 0 mm
14:49 -0.7 °C -7.1 °C 1031.4 hPa SSW 8 km/h 24.1 km/h 62% 0 mm
14:55 -0.7 °C -7.1 °C 1031.4 hPa SSW 8 km/h 24.1 km/h 62% 0 mm
14:59 -0.8 °C -7.2 °C 1031 hPa SSW 11.3 km/h 24.1 km/h 62% 0 mm
15:05 -0.8 °C -7.2 °C 1031.4 hPa SW 8 km/h 22.5 km/h 62% 0 mm
15:09 -0.9 °C -7.3 °C 1031 hPa SW 8 km/h 16.1 km/h 62% 0 mm
15:14 -0.9 °C -7.1 °C 1031 hPa SSW 9.7 km/h 19.3 km/h 63% 0 mm
15:20 -1 °C -7.2 °C 1031 hPa SSW 11.3 km/h 24.1 km/h 63% 0 mm
15:25 -1.1 °C -7.3 °C 1031 hPa SW 12.9 km/h 24.1 km/h 63% 0 mm
15:30 -1.2 °C -7.2 °C 1031 hPa SW 11.3 km/h 22.5 km/h 64% 0 mm
15:35 -1.3 °C -7.3 °C 1031 hPa SSW 8 km/h 22.5 km/h 64% 0 mm
15:40 -1.4 °C -7.2 °C 1031 hPa SSW 6.4 km/h 20.9 km/h 65% 0 mm
15:45 -1.4 °C -7.2 °C 1031 hPa SSW 11.3 km/h 19.3 km/h 65% 0 mm
15:55 -1.6 °C -7.3 °C 1031 hPa SSW 9.7 km/h 20.9 km/h 65% 0 mm
16:00 -1.7 °C -7.4 °C 1031 hPa SSW 9.7 km/h 20.9 km/h 65% 0 mm
16:04 -1.7 °C -7.4 °C 1030.7 hPa SSW 9.7 km/h 24.1 km/h 65% 0 mm
16:10 -1.7 °C -7.2 °C 1030.7 hPa SSW 8 km/h 24.1 km/h 66% 0 mm
16:15 -1.8 °C -7.3 °C 1030.7 hPa SSW 11.3 km/h 22.5 km/h 66% 0 mm
16:25 -1.8 °C -7.3 °C 1030.7 hPa SSW 8 km/h 19.3 km/h 66% 0 mm
16:30 -1.8 °C -7.3 °C 1030.7 hPa SW 9.7 km/h 20.9 km/h 66% 0 mm
16:35 -1.8 °C -7.3 °C 1030.7 hPa SSW 9.7 km/h 20.9 km/h 66% 0 mm
16:45 -1.8 °C -7.3 °C 1030.7 hPa SSW 12.9 km/h 24.1 km/h 66% 0 mm
16:49 -1.8 °C -7.3 °C 1030.7 hPa SW 11.3 km/h 22.5 km/h 66% 0 mm
16:54 -1.8 °C -7.3 °C 1030.7 hPa SSW 9.7 km/h 22.5 km/h 66% 0 mm
17:00 -1.8 °C -7.3 °C 1030.7 hPa SSW 9.7 km/h 22.5 km/h 66% 0 mm
17:04 -1.8 °C -7.3 °C 1030.4 hPa SW 11.3 km/h 22.5 km/h 66% 0 mm
17:09 -1.8 °C -7.5 °C 1030.7 hPa SSW 14.5 km/h 29 km/h 65% 0 mm
17:15 -1.8 °C -7.5 °C 1030.7 hPa SSW 11.3 km/h 29 km/h 65% 0 mm
17:19 -1.8 °C -7.7 °C 1030.4 hPa SSW 16.1 km/h 30.6 km/h 64% 0 mm
17:25 -1.8 °C -7.7 °C 1030.4 hPa SW 16.1 km/h 32.2 km/h 64% 0 mm
17:30 -1.8 °C -7.7 °C 1030.4 hPa SSW 16.1 km/h 35.4 km/h 64% 0 mm
17:35 -1.7 °C -7.8 °C 1030.4 hPa SSW 14.5 km/h 35.4 km/h 63% 0 mm
17:40 -1.7 °C -7.8 °C 1030.4 hPa SSW 14.5 km/h 30.6 km/h 63% 0 mm
17:50 -1.8 °C -7.9 °C 1030.4 hPa SSW 9.7 km/h 30.6 km/h 63% 0 mm
17:54 -1.7 °C -8.1 °C 1030.4 hPa SSW 11.3 km/h 30.6 km/h 62% 0 mm
17:59 -1.7 °C -8 °C 1030.4 hPa SSW 16.1 km/h 37 km/h 62% 0 mm
18:04 -1.7 °C -8 °C 1030.4 hPa SSW 16.1 km/h 37 km/h 62% 0 mm
18:10 -1.7 °C -8.1 °C 1030.4 hPa SW 17.7 km/h 32.2 km/h 62% 0 mm
18:14 -1.7 °C -8 °C 1030 hPa SSW 14.5 km/h 32.2 km/h 62% 0 mm
18:19 -1.7 °C -8 °C 1030.4 hPa SSW 14.5 km/h 32.2 km/h 62% 0 mm
18:25 -1.7 °C -8.1 °C 1030 hPa SSW 17.7 km/h 32.2 km/h 62% 0 mm
18:30 -1.6 °C -7.9 °C 1030 hPa SW 19.3 km/h 30.6 km/h 62% 0 mm
18:34 -1.6 °C -7.9 °C 1030.4 hPa SW 14.5 km/h 30.6 km/h 62% 0 mm
18:40 -1.6 °C -7.9 °C 1030.4 hPa SSW 14.5 km/h 33.8 km/h 62% 0 mm
18:45 -1.6 °C -7.9 °C 1030.4 hPa SSW 14.5 km/h 33.8 km/h 62% 0 mm
18:50 -1.5 °C -7.8 °C 1030.4 hPa SW 16.1 km/h 35.4 km/h 62% 0 mm
18:54 -1.6 °C -7.7 °C 1030.4 hPa SSW 11.3 km/h 35.4 km/h 63% 0 mm
18:59 -1.7 °C -7.8 °C 1030 hPa SW 11.3 km/h 32.2 km/h 63% 0 mm
19:04 -1.6 °C -7.7 °C 1030 hPa SSW 12.9 km/h 30.6 km/h 63% 0 mm
19:09 -1.5 °C -7.6 °C 1030.4 hPa SW 14.5 km/h 29 km/h 63% 0 mm
19:15 -1.4 °C -7.6 °C 1030 hPa SSW 19.3 km/h 35.4 km/h 63% 0 mm
19:19 -1.4 °C -7.6 °C 1030 hPa SSW 14.5 km/h 35.4 km/h 63% 0 mm
19:25 -1.4 °C -7.6 °C 1030.4 hPa SSW 14.5 km/h 29 km/h 63% 0 mm
19:30 -1.4 °C -7.6 °C 1030.4 hPa SSW 16.1 km/h 33.8 km/h 63% 0 mm
19:40 -1.5 °C -7.6 °C 1030 hPa SSW 16.1 km/h 29 km/h 63% 0 mm
19:44 -1.5 °C -7.4 °C 1030 hPa SSW 11.3 km/h 30.6 km/h 64% 0 mm
19:50 -1.5 °C -7.4 °C 1030 hPa SSW 16.1 km/h 32.2 km/h 64% 0 mm
19:54 -1.4 °C -7.5 °C 1030 hPa SSW 16.1 km/h 32.2 km/h 63% 0 mm
19:59 -1.4 °C -7.6 °C 1030 hPa SSW 16.1 km/h 32.2 km/h 63% 0 mm
20:05 -1.3 °C -7.4 °C 1030 hPa SSW 16.1 km/h 35.4 km/h 63% 0 mm
20:09 -1.4 °C -7.5 °C 1030 hPa SSW 16.1 km/h 35.4 km/h 63% 0 mm
20:14 -1.3 °C -7.4 °C 1030.4 hPa SSW 16.1 km/h 29 km/h 63% 0 mm
20:19 -1.3 °C -7.4 °C 1030.4 hPa SW 16.1 km/h 35.4 km/h 63% 0 mm
20:25 -1.3 °C -7.4 °C 1030 hPa SW 16.1 km/h 35.4 km/h 63% 0 mm
20:30 -1.3 °C -7.4 °C 1030.4 hPa SSW 16.1 km/h 33.8 km/h 63% 0 mm
20:34 -1.3 °C -7.4 °C 1030 hPa SSW 17.7 km/h 35.4 km/h 63% 0 mm
20:39 -1.4 °C -7.5 °C 1030 hPa SW 19.3 km/h 35.4 km/h 63% 0 mm
20:44 -1.4 °C -7.6 °C 1030 hPa SSW 17.7 km/h 35.4 km/h 63% 0 mm
20:49 -1.4 °C -7.5 °C 1030 hPa SSW 14.5 km/h 35.4 km/h 63% 0 mm
20:55 -1.4 °C -7.5 °C 1030 hPa SSW 17.7 km/h 33.8 km/h 63% 0 mm
20:59 -1.4 °C -7.6 °C 1030 hPa SSW 14.5 km/h 33.8 km/h 63% 0 mm
21:04 -1.4 °C -7.6 °C 1030 hPa SSW 20.9 km/h 32.2 km/h 63% 0 mm
21:09 -1.4 °C -7.4 °C 1030 hPa SSW 12.9 km/h 32.2 km/h 64% 0 mm
21:14 -1.4 °C -7.5 °C 1030 hPa SW 19.3 km/h 35.4 km/h 63% 0 mm
21:19 -1.4 °C -7.5 °C 1030 hPa SSW 16.1 km/h 35.4 km/h 63% 0 mm
21:25 -1.4 °C -7.5 °C 1030 hPa SSW 14.5 km/h 30.6 km/h 63% 0 mm
21:35 -1.4 °C -7.6 °C 1030 hPa SW 14.5 km/h 30.6 km/h 63% 0 mm
21:40 -1.4 °C -7.6 °C 1030 hPa SSW 17.7 km/h 30.6 km/h 63% 0 mm
21:49 -1.4 °C -7.6 °C 1030 hPa SSW 17.7 km/h 30.6 km/h 63% 0 mm
21:54 -1.4 °C -7.6 °C 1030 hPa SSW 12.9 km/h 30.6 km/h 63% 0 mm
21:59 -1.4 °C -7.5 °C 1030 hPa SSW 12.9 km/h 29 km/h 63% 0 mm
22:04 -1.4 °C -7.5 °C 1030 hPa SSW 16.1 km/h 33.8 km/h 63% 0 mm
22:09 -1.3 °C -7.4 °C 1029.7 hPa SSW 16.1 km/h 33.8 km/h 63% 0 mm
22:14 -1.3 °C -7.4 °C 1029.7 hPa SSW 12.9 km/h 27.4 km/h 63% 0 mm
22:19 -1.4 °C -7.5 °C 1029.7 hPa SSW 14.5 km/h 27.4 km/h 63% 0 mm
22:24 -1.4 °C -7.5 °C 1029.7 hPa SSW 12.9 km/h 24.1 km/h 63% 0 mm
22:29 -1.3 °C -7.7 °C 1029.7 hPa SSW 17.7 km/h 29 km/h 62% 0 mm
22:34 -1.4 °C -7.5 °C 1029.7 hPa SSW 11.3 km/h 29 km/h 63% 0 mm
22:39 -1.3 °C -7.6 °C 1029.7 hPa SSW 17.7 km/h 32.2 km/h 62% 0 mm
22:44 -1.2 °C -7.6 °C 1029.7 hPa SSW 14.5 km/h 32.2 km/h 62% 0 mm
22:49 -1.2 °C -7.5 °C 1029.7 hPa SSW 11.3 km/h 35.4 km/h 62% 0 mm
22:54 -1.2 °C -7.5 °C 1029.7 hPa SSW 14.5 km/h 35.4 km/h 62% 0 mm
22:59 -1.2 °C -7.6 °C 1029.7 hPa SSW 14.5 km/h 27.4 km/h 62% 0 mm
23:04 -1.2 °C -7.7 °C 1029.7 hPa SW 16.1 km/h 32.2 km/h 61% 0 mm
23:09 -1.1 °C -7.7 °C 1030 hPa SSW 11.3 km/h 33.8 km/h 61% 0 mm
23:14 -1.2 °C -7.8 °C 1030 hPa SSW 12.9 km/h 33.8 km/h 61% 0 mm
23:19 -1.2 °C -7.7 °C 1030 hPa SW 14.5 km/h 35.4 km/h 61% 0 mm
23:25 -1.2 °C -7.6 °C 1029.7 hPa SSW 12.9 km/h 35.4 km/h 62% 0 mm
23:29 -1.2 °C -7.7 °C 1030 hPa SSW 12.9 km/h 30.6 km/h 61% 0 mm
23:34 -1.2 °C -7.7 °C 1030 hPa SSW 12.9 km/h 29 km/h 61% 0 mm
23:39 -1.1 °C -7.6 °C 1029.7 hPa SSW 14.5 km/h 30.6 km/h 61% 0 mm
23:45 -1.1 °C -7.6 °C 1029.7 hPa SSW 14.5 km/h 30.6 km/h 61% 0 mm
23:49 -1.1 °C -7.7 °C 1029.7 hPa SSW 16.1 km/h 29 km/h 61% 0 mm
23:54 -1.1 °C -7.6 °C 1029.7 hPa SSW 12.9 km/h 29 km/h 61% 0 mm
23:59 -1 °C -7.8 °C 1029.7 hPa SSW 14.5 km/h 29 km/h 60% 0 mm
Westford Weather
Compliments of Weather Underground

 
 
Current Radar Loop:

Copyright © WestfordWeather.net 2007-2014. All rights reserved.